createdAt,value
2019-02-27T00:01:16.771Z,3.59
2019-02-27T00:03:59.852Z,3.54
2019-02-27T00:06:40.216Z,2.82
2019-02-27T00:09:32.712Z,3.47
2019-02-27T00:12:21.235Z,3.38
2019-02-27T00:18:01.254Z,3.29
2019-02-27T00:20:50.419Z,3.24
2019-02-27T00:23:39.913Z,3.20
2019-02-27T00:26:29.392Z,3.17
2019-02-27T00:29:18.678Z,3.16
2019-02-27T00:32:08.293Z,3.14
2019-02-27T00:34:38.483Z,3.14
2019-02-27T00:37:08.698Z,3.14
2019-02-27T00:39:58.212Z,3.14
2019-02-27T00:42:47.792Z,3.10
2019-02-27T00:45:39.629Z,3.14
2019-02-27T00:48:09.310Z,3.15
2019-02-27T00:50:58.857Z,3.15
2019-02-27T00:53:29.126Z,3.09
2019-02-27T00:56:18.356Z,3.06
2019-02-27T00:59:07.820Z,3.08
2019-02-27T01:01:57.005Z,3.04
2019-02-27T01:04:46.486Z,2.99
2019-02-27T01:07:35.680Z,2.94
2019-02-27T01:10:17.478Z,2.94
2019-02-27T01:12:47.642Z,2.88
2019-02-27T01:15:36.842Z,2.85
2019-02-27T01:18:07.104Z,2.78
2019-02-27T01:20:37.401Z,2.82
2019-02-27T01:23:26.855Z,2.79
2019-02-27T01:26:16.095Z,2.76
2019-02-27T01:29:05.517Z,2.80
2019-02-27T01:31:54.964Z,2.79
2019-02-27T01:34:26.900Z,2.79
2019-02-27T01:37:16.579Z,2.79
2019-02-27T01:40:06.710Z,2.70
2019-02-27T01:42:36.910Z,2.64
2019-02-27T01:45:26.418Z,2.63
2019-02-27T01:48:15.937Z,1.66
2019-02-27T01:50:46.109Z,2.50
2019-02-27T01:53:16.248Z,2.51
2019-02-27T01:56:05.745Z,2.48
2019-02-27T01:58:54.944Z,2.57
2019-02-27T02:01:29.821Z,2.63
2019-02-27T02:04:19.991Z,2.58
2019-02-27T02:07:07.648Z,2.51
2019-02-27T02:09:39.252Z,2.48
2019-02-27T02:12:30.364Z,2.46
2019-02-27T02:15:31.050Z,2.41
2019-02-27T02:18:39.211Z,2.44
2019-02-27T02:21:34.319Z,2.35
2019-02-27T02:24:42.962Z,2.40
2019-02-27T02:27:51.075Z,2.39
2019-02-27T02:31:04.939Z,2.42
2019-02-27T02:34:06.359Z,2.33
2019-02-27T02:37:14.503Z,2.31
2019-02-27T02:40:31.270Z,2.32
2019-02-27T02:43:41.632Z,2.22
2019-02-27T02:46:48.484Z,2.25
2019-02-27T02:49:56.631Z,2.23
2019-02-27T02:53:04.785Z,2.10
2019-02-27T02:56:12.917Z,2.14
2019-02-27T02:59:24.389Z,2.12
2019-02-27T03:02:14.861Z,2.12
2019-02-27T03:05:16.650Z,2.09
2019-02-27T03:08:08.915Z,2.14
2019-02-27T03:11:19.068Z,2.12
2019-02-27T03:14:26.866Z,2.09
2019-02-27T03:17:35.009Z,2.09
2019-02-27T03:20:43.193Z,2.07
2019-02-27T03:23:52.462Z,2.07
2019-02-27T03:27:00.793Z,2.02
2019-02-27T03:30:09.034Z,2.05
2019-02-27T03:33:22.708Z,2.00
2019-02-27T03:36:20.848Z,2.00
2019-02-27T03:39:16.866Z,2.06
2019-02-27T03:42:25.066Z,2.00
2019-02-27T03:45:30.988Z,2.03
2019-02-27T03:48:27.763Z,1.97
2019-02-27T03:51:35.436Z,2.05
2019-02-27T03:54:30.835Z,2.20
2019-02-27T03:57:42.192Z,2.22
2019-02-27T04:04:00.793Z,2.07
2019-02-27T04:09:59.351Z,1.88
2019-02-27T04:12:51.653Z,1.92
2019-02-27T04:15:20.692Z,1.93
2019-02-27T04:17:52.221Z,1.94
2019-02-27T04:20:40.370Z,1.95
2019-02-27T04:23:29.536Z,2.04
2019-02-27T04:26:19.477Z,2.22
2019-02-27T04:28:49.638Z,2.31
2019-02-27T04:31:20.058Z,2.40
2019-02-27T04:33:50.456Z,2.48
2019-02-27T04:36:20.604Z,2.48
2019-02-27T04:39:10.269Z,2.47
2019-02-27T04:41:40.447Z,2.58
2019-02-27T04:44:10.690Z,2.61
2019-02-27T04:46:40.880Z,2.66
2019-02-27T04:49:30.389Z,2.68
2019-02-27T04:52:21.966Z,2.61
2019-02-27T04:55:13.068Z,2.43
2019-02-27T05:01:10.550Z,2.10
2019-02-27T05:04:01.508Z,2.04
2019-02-27T05:06:32.854Z,1.98
2019-02-27T05:09:03.073Z,1.94
2019-02-27T05:11:34.640Z,1.92
2019-02-27T05:14:05.062Z,1.88
2019-02-27T05:16:36.128Z,1.83
2019-02-27T05:19:06.697Z,1.80
2019-02-27T05:21:52.241Z,1.78
2019-02-27T05:24:30.240Z,1.77
2019-02-27T05:27:19.615Z,1.66
2019-02-27T05:30:12.064Z,1.65
2019-02-27T05:33:02.129Z,1.64
2019-02-27T05:35:50.904Z,1.56
2019-02-27T05:38:21.047Z,1.49
2019-02-27T05:41:10.246Z,1.41
2019-02-27T05:43:59.749Z,1.46
2019-02-27T05:46:48.941Z,1.47
2019-02-27T05:49:38.473Z,1.48
2019-02-27T05:52:27.936Z,1.45
2019-02-27T05:55:17.388Z,1.46
2019-02-27T05:58:25.478Z,1.48
2019-02-27T06:01:14.905Z,1.50
2019-02-27T06:03:45.120Z,1.46
2019-02-27T06:06:15.242Z,1.46
2019-02-27T06:08:45.651Z,1.42
2019-02-27T06:11:35.075Z,1.47
2019-02-27T06:14:05.276Z,1.43
2019-02-27T06:16:37.624Z,1.50
2019-02-27T06:19:26.423Z,1.57
2019-02-27T06:21:56.935Z,1.56
2019-02-27T06:24:27.255Z,1.57
2019-02-27T06:26:57.729Z,1.61
2019-02-27T06:29:28.374Z,1.63
2019-02-27T06:32:17.581Z,1.72
2019-02-27T06:34:47.844Z,1.87
2019-02-27T06:37:37.315Z,1.94
2019-02-27T06:40:08.118Z,2.02
2019-02-27T06:42:57.299Z,2.01
2019-02-27T06:45:27.435Z,2.07
2019-02-27T06:47:57.605Z,2.18
2019-02-27T06:50:28.033Z,2.10
2019-02-27T06:52:58.212Z,2.08
2019-02-27T06:55:28.837Z,2.15
2019-02-27T06:57:58.961Z,2.23
2019-02-27T07:00:29.425Z,2.32
2019-02-27T07:02:59.554Z,2.40
2019-02-27T07:05:29.708Z,2.58
2019-02-27T07:08:02.189Z,2.72
2019-02-27T07:10:32.257Z,2.81
2019-02-27T07:13:02.444Z,2.84
2019-02-27T07:15:32.653Z,2.94
2019-02-27T07:18:03.476Z,3.08
2019-02-27T07:20:55.652Z,3.13
2019-02-27T07:23:25.912Z,3.28
2019-02-27T07:26:15.821Z,3.34
2019-02-27T07:28:46.736Z,3.47
2019-02-27T07:31:38.594Z,3.53
2019-02-27T07:34:27.822Z,3.51
2019-02-27T07:36:57.946Z,3.52
2019-02-27T07:39:47.152Z,3.56
2019-02-27T07:42:17.316Z,3.61
2019-02-27T07:44:47.412Z,3.59
2019-02-27T07:47:17.882Z,3.65
2019-02-27T07:50:08.829Z,3.70
2019-02-27T07:52:39.106Z,3.86
2019-02-27T07:55:28.550Z,4.06
2019-02-27T07:57:59.306Z,4.35
2019-02-27T08:00:49.855Z,4.81
2019-02-27T08:03:39.500Z,4.29
2019-02-27T08:06:28.688Z,5.21
2019-02-27T08:08:58.849Z,5.42
2019-02-27T08:11:29.006Z,5.43
2019-02-27T08:14:00.756Z,5.53
2019-02-27T08:16:31.354Z,5.63
2019-02-27T08:19:01.690Z,5.78
2019-02-27T08:21:50.903Z,5.91
2019-02-27T08:24:22.722Z,6.18
2019-02-27T08:26:53.295Z,6.43
2019-02-27T08:29:23.729Z,6.72
2019-02-27T08:31:53.978Z,7.11
2019-02-27T08:34:43.080Z,7.46
2019-02-27T08:37:13.451Z,7.91
2019-02-27T08:39:44.752Z,8.57
2019-02-27T08:42:15.779Z,9.05
2019-02-27T08:45:05.158Z,9.51
2019-02-27T08:47:55.791Z,9.92
2019-02-27T08:50:45.580Z,10.39
2019-02-27T08:53:15.768Z,12.27
2019-02-27T08:56:04.964Z,13.07
2019-02-27T08:58:35.190Z,13.55
2019-02-27T09:01:24.565Z,14.86
2019-02-27T09:04:14.007Z,14.59
2019-02-27T09:06:44.488Z,15.73
2019-02-27T09:09:14.988Z,16.19
2019-02-27T09:11:46.629Z,16.22
2019-02-27T09:14:36.060Z,16.77
2019-02-27T09:17:06.205Z,17.40
2019-02-27T09:19:36.408Z,17.85
2019-02-27T09:22:25.661Z,16.93
2019-02-27T09:25:14.933Z,17.34
2019-02-27T09:27:45.363Z,18.03
2019-02-27T09:30:16.336Z,17.86
2019-02-27T09:32:46.804Z,18.22
2019-02-27T09:35:17.035Z,18.65
2019-02-27T09:37:48.299Z,18.90
2019-02-27T09:40:39.576Z,17.88
2019-02-27T09:43:09.895Z,17.33
2019-02-27T09:45:59.845Z,17.47
2019-02-27T09:48:31.135Z,18.04
2019-02-27T09:51:02.471Z,18.01
2019-02-27T09:53:34.003Z,17.51
2019-02-27T09:56:05.375Z,17.26
2019-02-27T09:58:36.080Z,17.11
2019-02-27T10:01:25.292Z,17.32
2019-02-27T10:04:14.705Z,17.29
2019-02-27T10:07:04.267Z,16.67
2019-02-27T10:09:53.503Z,16.94
2019-02-27T10:12:42.734Z,16.47
2019-02-27T10:15:13.752Z,16.31
2019-02-27T10:18:03.247Z,16.61
2019-02-27T10:20:45.367Z,16.37
2019-02-27T10:23:15.687Z,16.91
2019-02-27T10:25:46.175Z,17.03
2019-02-27T10:28:38.860Z,16.85
2019-02-27T10:31:07.324Z,17.00
2019-02-27T10:33:56.536Z,16.55
2019-02-27T10:36:47.632Z,16.37
2019-02-27T10:39:17.970Z,16.05
2019-02-27T10:42:07.894Z,15.78
2019-02-27T10:44:57.073Z,15.42
2019-02-27T10:47:46.333Z,14.91
2019-02-27T10:50:36.212Z,14.48
2019-02-27T10:53:27.361Z,14.43
2019-02-27T10:56:16.755Z,14.36
2019-02-27T10:59:06.116Z,14.48
2019-02-27T11:01:55.355Z,14.58
2019-02-27T11:04:44.874Z,14.74
2019-02-27T11:07:34.060Z,14.75
2019-02-27T11:10:23.422Z,14.72
2019-02-27T11:13:12.828Z,14.75
2019-02-27T11:16:02.054Z,14.87
2019-02-27T11:18:32.232Z,14.70
2019-02-27T11:21:11.978Z,14.55
2019-02-27T11:24:01.185Z,14.48
2019-02-27T11:26:33.360Z,14.44
2019-02-27T11:29:23.741Z,14.49
2019-02-27T11:32:13.175Z,14.51
2019-02-27T11:35:02.412Z,14.62
2019-02-27T11:37:51.842Z,14.75
2019-02-27T11:40:42.609Z,14.86
2019-02-27T11:43:13.218Z,14.92
2019-02-27T11:46:02.441Z,14.78
2019-02-27T11:48:51.606Z,14.88
2019-02-27T11:51:21.754Z,14.89
2019-02-27T11:53:51.998Z,14.98
2019-02-27T11:56:22.216Z,15.06
2019-02-27T11:59:30.403Z,15.13
2019-02-27T12:02:19.656Z,15.20
2019-02-27T12:05:09.481Z,15.30
2019-02-27T12:07:58.691Z,15.24
2019-02-27T12:11:02.154Z,15.22
2019-02-27T12:13:39.063Z,15.22
2019-02-27T12:16:28.293Z,15.23
2019-02-27T12:19:17.523Z,15.41
2019-02-27T12:22:00.297Z,15.44
2019-02-27T12:24:42.539Z,15.51
2019-02-27T12:27:45.182Z,15.47
2019-02-27T12:30:08.862Z,15.60
2019-02-27T12:32:50.371Z,15.54
2019-02-27T12:35:22.526Z,15.49
2019-02-27T12:37:52.687Z,15.80
2019-02-27T12:40:41.834Z,15.81
2019-02-27T12:43:17.233Z,15.82
2019-02-27T12:45:43.984Z,15.90
2019-02-27T12:48:33.172Z,16.12
2019-02-27T12:51:22.354Z,16.19
2019-02-27T12:54:11.555Z,16.31
2019-02-27T12:57:00.749Z,16.65
2019-02-27T12:59:49.959Z,16.27
2019-02-27T13:02:39.195Z,16.96
2019-02-27T13:05:28.699Z,16.86
2019-02-27T13:10:53.958Z,17.16
2019-02-27T13:13:43.301Z,17.58
2019-02-27T13:16:32.434Z,18.20
2019-02-27T13:19:06.268Z,19.98
2019-02-27T13:21:55.153Z,20.21
2019-02-27T13:24:47.063Z,19.95
2019-02-27T13:27:16.994Z,19.22
2019-02-27T13:30:09.196Z,19.13
2019-02-27T13:33:01.957Z,19.32
2019-02-27T13:35:32.678Z,20.66
2019-02-27T13:38:03.397Z,21.67
2019-02-27T13:40:52.587Z,21.05
2019-02-27T13:43:24.475Z,20.07
2019-02-27T13:45:54.869Z,19.27
2019-02-27T13:48:28.257Z,19.13
2019-02-27T13:50:59.250Z,18.94
2019-02-27T13:53:30.393Z,18.43
2019-02-27T13:56:00.666Z,18.22
2019-02-27T13:58:35.531Z,17.89
2019-02-27T14:01:02.892Z,17.77
2019-02-27T14:03:33.039Z,17.99
2019-02-27T14:06:06.324Z,17.80
2019-02-27T14:08:54.335Z,17.70
2019-02-27T14:11:25.112Z,17.86
2019-02-27T14:13:56.492Z,17.85
2019-02-27T14:16:45.766Z,17.87
2019-02-27T14:19:36.476Z,18.22
2019-02-27T14:22:25.965Z,18.45
2019-02-27T14:25:21.179Z,18.59
2019-02-27T14:28:10.335Z,18.46
2019-02-27T14:30:59.548Z,18.44
2019-02-27T14:33:41.278Z,18.39
2019-02-27T14:36:11.481Z,18.51
2019-02-27T14:38:41.706Z,18.76
2019-02-27T14:41:14.360Z,19.17
2019-02-27T14:44:02.815Z,18.79
2019-02-27T14:46:33.056Z,18.66
2019-02-27T14:49:23.852Z,18.58
2019-02-27T14:51:54.109Z,18.72
2019-02-27T14:54:43.426Z,19.06
2019-02-27T14:57:16.121Z,19.67
2019-02-27T14:59:45.459Z,20.37
2019-02-27T15:02:16.270Z,21.07
2019-02-27T15:04:46.486Z,21.07
2019-02-27T15:07:16.635Z,20.30
2019-02-27T15:10:07.207Z,19.50
2019-02-27T15:12:53.900Z,18.39
2019-02-27T15:15:23.716Z,18.25
2019-02-27T15:17:55.165Z,17.97
2019-02-27T15:20:44.371Z,19.17
2019-02-27T15:25:41.936Z,22.17
2019-02-27T15:28:11.758Z,23.19
2019-02-27T15:30:46.376Z,22.40
2019-02-27T15:33:32.975Z,22.36
2019-02-27T15:36:03.226Z,23.30
2019-02-27T15:38:33.433Z,24.59
2019-02-27T15:41:05.604Z,25.22
2019-02-27T15:43:35.974Z,24.12
2019-02-27T15:46:25.821Z,22.34
2019-02-27T15:49:15.868Z,20.72
2019-02-27T15:51:46.935Z,19.47
2019-02-27T15:54:36.112Z,18.54
2019-02-27T15:57:08.016Z,18.07
2019-02-27T15:59:41.612Z,17.51
2019-02-27T16:02:29.347Z,17.20
2019-02-27T16:05:18.607Z,16.97
2019-02-27T16:08:11.029Z,16.45
2019-02-27T16:11:00.330Z,16.18
2019-02-27T16:13:32.019Z,15.90
2019-02-27T16:16:23.214Z,15.48
2019-02-27T16:19:12.669Z,15.19
2019-02-27T16:21:43.238Z,14.99
2019-02-27T16:24:24.395Z,14.93
2019-02-27T16:27:06.021Z,14.84
2019-02-27T16:29:47.448Z,14.72
2019-02-27T16:32:29.368Z,14.54
2019-02-27T16:35:11.567Z,14.55
2019-02-27T16:37:41.858Z,13.92
2019-02-27T16:40:31.061Z,14.44
2019-02-27T16:43:20.660Z,14.07
2019-02-27T16:46:10.486Z,13.73
2019-02-27T16:48:59.735Z,13.50
2019-02-27T16:51:31.214Z,12.81
2019-02-27T16:54:21.195Z,13.20
2019-02-27T16:57:10.660Z,12.84
2019-02-27T16:59:59.851Z,12.53
2019-02-27T17:02:49.961Z,12.22
2019-02-27T17:05:20.641Z,12.07
2019-02-27T17:08:00.653Z,12.16
2019-02-27T17:10:51.709Z,12.24
2019-02-27T17:13:22.815Z,12.20
2019-02-27T17:15:54.527Z,12.19
2019-02-27T17:18:29.301Z,12.07
2019-02-27T17:21:00.604Z,11.98
2019-02-27T17:26:24.383Z,11.77
2019-02-27T17:29:15.402Z,11.64
2019-02-27T17:32:04.770Z,11.52
2019-02-27T17:34:54.087Z,11.50
2019-02-27T17:37:45.331Z,11.39
2019-02-27T17:40:37.862Z,11.25
2019-02-27T17:43:09.287Z,11.14
2019-02-27T17:46:01.176Z,11.06
2019-02-27T17:48:51.839Z,11.06
2019-02-27T17:52:11.360Z,10.94
2019-02-27T17:54:21.017Z,10.88
2019-02-27T17:57:12.363Z,10.68
2019-02-27T18:00:01.880Z,10.51
2019-02-27T18:02:53.165Z,10.40
2019-02-27T18:05:43.400Z,10.30
2019-02-27T18:08:17.092Z,10.19
2019-02-27T18:10:48.957Z,10.04
2019-02-27T18:13:38.653Z,10.00
2019-02-27T18:16:27.974Z,9.87
2019-02-27T18:18:58.855Z,9.95
2019-02-27T18:21:33.363Z,9.77
2019-02-27T18:24:01.018Z,9.66
2019-02-27T18:26:42.771Z,9.60
2019-02-27T18:29:13.133Z,9.47
2019-02-27T18:31:43.776Z,9.38
2019-02-27T18:34:33.137Z,9.24
2019-02-27T18:37:04.854Z,9.24
2019-02-27T18:39:36.522Z,9.17
2019-02-27T18:42:07.422Z,9.09
2019-02-27T18:44:41.504Z,8.87
2019-02-27T18:47:10.806Z,8.83
2019-02-27T18:49:43.169Z,8.79
2019-02-27T18:52:21.191Z,8.74
2019-02-27T18:54:46.054Z,8.57
2019-02-27T18:57:35.391Z,8.60
2019-02-27T19:00:07.824Z,8.33
2019-02-27T19:02:38.026Z,8.40
2019-02-27T19:05:09.766Z,8.37
2019-02-27T19:07:59.381Z,8.29
2019-02-27T19:10:29.944Z,8.27
2019-02-27T19:13:01.076Z,8.14
2019-02-27T19:15:51.587Z,8.10
2019-02-27T19:18:41.203Z,8.05
2019-02-27T19:21:24.500Z,7.90
2019-02-27T19:24:06.215Z,7.86
2019-02-27T19:26:46.073Z,7.79
2019-02-27T19:29:35.783Z,7.68
2019-02-27T19:32:25.357Z,7.60
2019-02-27T19:35:15.144Z,7.50
2019-02-27T19:38:04.699Z,6.72
2019-02-27T19:40:56.761Z,6.49
2019-02-27T19:43:27.247Z,7.33
2019-02-27T19:46:00.588Z,7.23
2019-02-27T19:48:31.846Z,7.22
2019-02-27T19:51:22.247Z,7.15
2019-02-27T19:54:18.418Z,7.11
2019-02-27T19:57:26.035Z,7.15
2019-02-27T20:00:17.656Z,6.50
2019-02-27T20:03:07.179Z,7.47
2019-02-27T20:05:56.353Z,7.53
2019-02-27T20:08:45.714Z,7.33
2019-02-27T20:11:40.042Z,7.01
2019-02-27T20:14:07.411Z,6.81
2019-02-27T20:16:37.849Z,6.67
2019-02-27T20:22:01.198Z,6.53
2019-02-27T20:24:32.431Z,6.46
2019-02-27T20:27:03.862Z,6.41
2019-02-27T20:29:39.464Z,6.34
2019-02-27T20:32:19.675Z,6.28
2019-02-27T20:34:50.131Z,6.17
2019-02-27T20:37:40.212Z,6.13
2019-02-27T20:40:14.870Z,6.15
2019-02-27T20:42:49.837Z,6.04
2019-02-27T20:45:42.793Z,5.99
2019-02-27T20:48:12.749Z,5.90
2019-02-27T20:50:44.747Z,5.90
2019-02-27T20:53:20.928Z,5.95
2019-02-27T20:55:49.351Z,5.93
2019-02-27T20:58:22.017Z,5.78
2019-02-27T21:03:47.955Z,4.88
2019-02-27T21:06:18.948Z,5.56
2019-02-27T21:08:49.165Z,5.52
2019-02-27T21:11:19.738Z,5.50
2019-02-27T21:13:51.164Z,5.44
2019-02-27T21:16:21.634Z,5.47
2019-02-27T21:18:53.022Z,5.43
2019-02-27T21:21:43.507Z,5.38
2019-02-27T21:24:33.578Z,5.29
2019-02-27T21:27:03.938Z,5.31
2019-02-27T21:29:36.115Z,5.19
2019-02-27T21:32:25.543Z,5.16
2019-02-27T21:34:56.128Z,5.15
2019-02-27T21:37:45.929Z,5.10
2019-02-27T21:40:36.139Z,5.05
2019-02-27T21:43:26.746Z,4.98
2019-02-27T21:46:16.215Z,4.92
2019-02-27T21:49:05.736Z,4.90
2019-02-27T21:51:38.392Z,4.91
2019-02-27T21:54:09.125Z,4.87
2019-02-27T21:56:58.950Z,4.86
2019-02-27T21:59:31.239Z,4.85
2019-02-27T22:02:20.423Z,4.72
2019-02-27T22:05:09.880Z,4.72
2019-02-27T22:07:40.273Z,4.61
2019-02-27T22:10:29.881Z,4.62
2019-02-27T22:13:00.278Z,3.73
2019-02-27T22:15:55.816Z,4.52
2019-02-27T22:18:23.388Z,4.54
2019-02-27T22:20:53.646Z,4.53
2019-02-27T22:23:24.347Z,4.55
2019-02-27T22:25:54.512Z,4.58
2019-02-27T22:28:24.660Z,4.54
2019-02-27T22:30:54.800Z,4.55
2019-02-27T22:33:36.474Z,4.45
2019-02-27T22:36:12.343Z,4.48
2019-02-27T22:39:00.187Z,4.48
2019-02-27T22:41:30.969Z,4.53
2019-02-27T22:44:20.285Z,4.54
2019-02-27T22:47:09.756Z,4.54
2019-02-27T22:49:58.995Z,4.58
2019-02-27T22:52:29.136Z,4.62
2019-02-27T22:55:18.344Z,4.66
2019-02-27T22:57:48.514Z,4.68
2019-02-27T23:00:59.098Z,4.66
2019-02-27T23:03:50.058Z,4.63
2019-02-27T23:06:20.237Z,4.59
2019-02-27T23:09:10.983Z,4.64
2019-02-27T23:12:00.190Z,4.68
2019-02-27T23:14:50.207Z,4.67
2019-02-27T23:17:21.601Z,4.66
2019-02-27T23:20:11.169Z,4.63
2019-02-27T23:23:02.741Z,4.61
2019-02-27T23:25:32.462Z,4.55
2019-02-27T23:28:21.623Z,4.43
2019-02-27T23:30:52.131Z,4.39
2019-02-27T23:33:24.603Z,4.26
2019-02-27T23:35:54.224Z,4.30
2019-02-27T23:38:43.433Z,4.35
2019-02-27T23:41:13.596Z,4.49
2019-02-27T23:43:43.811Z,4.64
2019-02-27T23:46:33.254Z,4.78
2019-02-27T23:49:06.542Z,5.01
2019-02-27T23:51:35.852Z,5.19
2019-02-27T23:54:05.982Z,5.25
2019-02-27T23:56:55.251Z,5.18
2019-02-27T23:59:25.495Z,5.00
